Ana Sayfa
METAR-TAF:

METAR-TAF

Havaalanları :

Duncan Municipal Airport (Halliburton Field)

Duncan, Oklahoma, Amerika Birleşik Devletleri

Enlem: 34-28-15N, Boylam: 097-57-36W, yükseklik: 339 m

Güncel hava durumu gözlemi

Rapor saat 18:55 UTC de 27 dakika önce yapıldı.
Rüzgar kuzeybatıdan 19 kt ve 24 kt'a kadar ani rüzgarlar
Sıcaklık 11°C
Nem 66%
Basınç 1008 hPa
Görüş mesafesi: 16.1 km
2500 ft yükseklikte parçalı çok bulutlu
3000 ft yükseklikte çok bulutlu

METAR: KDUC 241855Z AUTO 32019G24KT 10SM BKN025 OVC030 11/05 A2978 RMK AO2

Saat: 13:22 (19:22 UTC)


TAF: eksik

4.000'den fazla havaalanı için hava durumu gözlemleri ve tahminleri (METAR ve TAF raporları).

Kullanılabilir istasyonlar harita üzerinde sarı ve kırmızı noktalarla gösterilir.

İstasyonun adını görmek için fareyi noktanın üzerinde gezdirin.

Sonrasında hava gözlem ve tahminlerini görmek için tıklayın.

Haritayı değiştirmek için: yaklaştırmak için siyah artı işaretli yeşil düğmeye ve uzaklaştırmak için de eksi işaretli düğmeye hızla tıklayın; bitişik haritalar için yeşil okları kullanın.


METAR-TAF: